NCAR-RAP Real-Time Weather Data

Output produced by METARs form (08 May 2021  01:49 UTC)
found at http://weather.rap.ucar.edu/surface/
 
KCDC 080053Z AUTO 20019G31KT 10SM CLR 23/M09 A2989 RMK AO2 PK WND 21032/0041 SLP057 T02331094
KCDC 072353Z AUTO 20023G30KT 10SM CLR 24/M09 A2990 RMK AO2 PK WND 21035/2308 SLP056 T02441094 10261 20233 56016
KCDC 072253Z AUTO 22027G36KT 10SM CLR 25/M13 A2990 RMK AO2 PK WND 21036/2245 SLP053 T02501128
KCDC 072153Z AUTO 23026G34KT 10SM CLR 25/M12 A2993 RMK AO2 PK WND 22037/2129 SLP064 T02501122
KCDC 072053Z AUTO 22026G34KT 10SM CLR 25/M10 A2995 RMK AO2 PK WND 20038/2029 SLP071 T02501100 58018
KCDC 071953Z AUTO 20024G33KT 10SM CLR 25/M07 A2998 RMK AO2 PK WND 23037/1934 SLP079 T02501072
KCDC 071853Z AUTO 22023G30KT 10SM CLR 24/M07 A3000 RMK AO2 PK WND 21032/1840 SLP087 T02441067
KCDC 071753Z AUTO 21021G29KT 10SM CLR 24/M07 A3002 RMK AO2 PK WND 21032/1708 SLP091 T02391072 10239 20117 58006
KCDC 071653Z AUTO 20024G30KT 10SM CLR 23/M08 A3003 RMK AO2 PK WND 19032/1640 SLP093 T02281078
KCDC 071553Z AUTO 21020G26KT 10SM CLR 22/M05 A3004 RMK AO2 PK WND 21026/1550 SLP097 T02171050
KCDC 071453Z AUTO 20012G18KT 10SM CLR 20/M05 A3004 RMK AO2 SLP102 T02001050 50001
KCDC 071353Z AUTO 00000KT 10SM CLR 17/M04 A3005 RMK AO2 SLP102 T01671039
KCDC 071253Z AUTO 19009KT 10SM CLR 13/M06 A3004 RMK AO2 SLP103 T01281056
KCDC 071153Z AUTO 16006KT 10SM CLR 13/M05 A3003 RMK AO2 SLP096 T01331050 10172 20122 56007